sensor_id;sensor_type;location;lat;lon;timestamp;P1;durP1;ratioP1;P2;durP2;ratioP2
67930;SDS011;63902;52.000;5.954;2023-03-21T00:00:03;28.77;;;12.55;;
67930;SDS011;63902;52.000;5.954;2023-03-21T00:01:04;21.70;;;10.88;;
67930;SDS011;63902;52.000;5.954;2023-03-21T00:02:05;28.20;;;11.57;;
67930;SDS011;63902;52.000;5.954;2023-03-21T00:03:05;21.98;;;11.38;;
67930;SDS011;63902;52.000;5.954;2023-03-21T00:04:06;25.75;;;12.13;;
67930;SDS011;63902;52.000;5.954;2023-03-21T00:05:07;26.88;;;13.35;;
67930;SDS011;63902;52.000;5.954;2023-03-21T00:06:08;20.70;;;12.95;;
67930;SDS011;63902;52.000;5.954;2023-03-21T00:07:10;32.88;;;13.45;;
67930;SDS011;63902;52.000;5.954;2023-03-21T00:08:11;29.45;;;13.23;;
67930;SDS011;63902;52.000;5.954;2023-03-21T00:09:11;21.48;;;12.38;;
67930;SDS011;63902;52.000;5.954;2023-03-21T00:10:12;30.52;;;12.60;;
67930;SDS011;63902;52.000;5.954;2023-03-21T00:11:13;24.70;;;13.63;;
67930;SDS011;63902;52.000;5.954;2023-03-21T00:12:14;20.92;;;12.48;;
67930;SDS011;63902;52.000;5.954;2023-03-21T00:13:15;25.15;;;13.88;;
67930;SDS011;63902;52.000;5.954;2023-03-21T00:14:16;23.42;;;13.07;;
67930;SDS011;63902;52.000;5.954;2023-03-21T00:15:16;22.40;;;13.07;;
67930;SDS011;63902;52.000;5.954;2023-03-21T00:16:17;25.75;;;14.30;;
67930;SDS011;63902;52.000;5.954;2023-03-21T00:17:18;34.97;;;13.90;;
67930;SDS011;63902;52.000;5.954;2023-03-21T00:18:19;28.35;;;13.70;;
67930;SDS011;63902;52.000;5.954;2023-03-21T00:19:20;25.52;;;13.23;;
67930;SDS011;63902;52.000;5.954;2023-03-21T00:20:20;23.75;;;13.10;;
67930;SDS011;63902;52.000;5.954;2023-03-21T00:21:21;29.02;;;12.85;;
67930;SDS011;63902;52.000;5.954;2023-03-21T00:22:23;24.05;;;13.15;;
67930;SDS011;63902;52.000;5.954;2023-03-21T00:23:23;19.85;;;12.48;;
67930;SDS011;63902;52.000;5.954;2023-03-21T00:24:24;21.00;;;13.65;;
67930;SDS011;63902;52.000;5.954;2023-03-21T00:25:25;23.23;;;12.85;;
67930;SDS011;63902;52.000;5.954;2023-03-21T00:26:25;24.98;;;13.68;;
67930;SDS011;63902;52.000;5.954;2023-03-21T00:27:26;26.92;;;15.23;;
67930;SDS011;63902;52.000;5.954;2023-03-21T00:28:28;37.20;;;15.10;;
67930;SDS011;63902;52.000;5.954;2023-03-21T00:29:28;28.65;;;14.02;;
67930;SDS011;63902;52.000;5.954;2023-03-21T00:30:29;27.40;;;13.90;;
67930;SDS011;63902;52.000;5.954;2023-03-21T00:31:29;23.25;;;12.93;;
67930;SDS011;63902;52.000;5.954;2023-03-21T00:32:30;28.40;;;13.68;;
67930;SDS011;63902;52.000;5.954;2023-03-21T00:33:30;26.20;;;14.57;;
67930;SDS011;63902;52.000;5.954;2023-03-21T00:34:31;31.25;;;14.15;;
67930;SDS011;63902;52.000;5.954;2023-03-21T00:35:32;26.67;;;13.75;;
67930;SDS011;63902;52.000;5.954;2023-03-21T00:36:32;21.55;;;13.23;;
67930;SDS011;63902;52.000;5.954;2023-03-21T00:37:33;22.60;;;12.57;;
67930;SDS011;63902;52.000;5.954;2023-03-21T00:38:33;21.13;;;13.80;;
67930;SDS011;63902;52.000;5.954;2023-03-21T00:39:34;25.77;;;13.98;;
67930;SDS011;63902;52.000;5.954;2023-03-21T00:40:35;26.65;;;13.98;;
67930;SDS011;63902;52.000;5.954;2023-03-21T00:41:35;21.75;;;12.32;;
67930;SDS011;63902;52.000;5.954;2023-03-21T00:42:36;26.58;;;13.13;;
67930;SDS011;63902;52.000;5.954;2023-03-21T00:43:38;25.88;;;14.10;;
67930;SDS011;63902;52.000;5.954;2023-03-21T00:44:38;26.05;;;12.93;;
67930;SDS011;63902;52.000;5.954;2023-03-21T00:45:39;27.67;;;14.75;;
67930;SDS011;63902;52.000;5.954;2023-03-21T00:46:39;22.25;;;13.15;;
67930;SDS011;63902;52.000;5.954;2023-03-21T00:47:40;29.52;;;13.82;;
67930;SDS011;63902;52.000;5.954;2023-03-21T00:48:40;23.60;;;13.57;;
67930;SDS011;63902;52.000;5.954;2023-03-21T00:49:41;21.70;;;12.65;;
67930;SDS011;63902;52.000;5.954;2023-03-21T00:50:42;24.90;;;13.35;;
67930;SDS011;63902;52.000;5.954;2023-03-21T00:51:44;22.60;;;13.30;;
67930;SDS011;63902;52.000;5.954;2023-03-21T00:52:45;27.02;;;13.52;;
67930;SDS011;63902;52.000;5.954;2023-03-21T00:53:46;27.30;;;13.57;;
67930;SDS011;63902;52.000;5.954;2023-03-21T00:54:46;28.88;;;13.98;;
67930;SDS011;63902;52.000;5.954;2023-03-21T00:55:47;29.52;;;14.57;;
67930;SDS011;63902;52.000;5.954;2023-03-21T00:56:48;25.38;;;13.63;;
67930;SDS011;63902;52.000;5.954;2023-03-21T00:57:48;21.80;;;13.57;;
67930;SDS011;63902;52.000;5.954;2023-03-21T00:58:50;27.83;;;13.55;;
67930;SDS011;63902;52.000;5.954;2023-03-21T00:59:51;27.10;;;13.55;;
67930;SDS011;63902;52.000;5.954;2023-03-21T01:00:51;24.33;;;14.00;;
67930;SDS011;63902;52.000;5.954;2023-03-21T01:01:52;20.70;;;13.60;;
67930;SDS011;63902;52.000;5.954;2023-03-21T01:02:52;21.58;;;13.45;;
67930;SDS011;63902;52.000;5.954;2023-03-21T01:03:53;22.55;;;13.35;;
67930;SDS011;63902;52.000;5.954;2023-03-21T01:04:53;26.10;;;14.10;;
67930;SDS011;63902;52.000;5.954;2023-03-21T01:05:54;23.55;;;13.15;;
67930;SDS011;63902;52.000;5.954;2023-03-21T01:06:54;23.40;;;14.18;;
67930;SDS011;63902;52.000;5.954;2023-03-21T01:07:55;23.20;;;13.27;;
67930;SDS011;63902;52.000;5.954;2023-03-21T01:08:55;22.33;;;13.07;;
67930;SDS011;63902;52.000;5.954;2023-03-21T01:09:56;22.55;;;13.80;;
67930;SDS011;63902;52.000;5.954;2023-03-21T01:10:59;21.35;;;12.93;;
67930;SDS011;63902;52.000;5.954;2023-03-21T01:12:01;21.50;;;12.43;;
67930;SDS011;63902;52.000;5.954;2023-03-21T01:13:02;30.38;;;13.00;;
67930;SDS011;63902;52.000;5.954;2023-03-21T01:14:04;21.00;;;12.73;;
67930;SDS011;63902;52.000;5.954;2023-03-21T01:15:05;21.70;;;12.43;;
67930;SDS011;63902;52.000;5.954;2023-03-21T01:16:07;21.23;;;13.45;;
67930;SDS011;63902;52.000;5.954;2023-03-21T01:17:08;24.42;;;11.98;;
67930;SDS011;63902;52.000;5.954;2023-03-21T01:18:09;23.08;;;12.27;;
67930;SDS011;63902;52.000;5.954;2023-03-21T01:19:10;21.42;;;12.35;;
67930;SDS011;63902;52.000;5.954;2023-03-21T01:20:13;22.90;;;12.10;;
67930;SDS011;63902;52.000;5.954;2023-03-21T01:21:13;20.17;;;11.27;;
67930;SDS011;63902;52.000;5.954;2023-03-21T01:22:14;17.55;;;11.60;;
67930;SDS011;63902;52.000;5.954;2023-03-21T01:23:15;26.70;;;14.10;;
67930;SDS011;63902;52.000;5.954;2023-03-21T01:24:16;22.55;;;12.75;;
67930;SDS011;63902;52.000;5.954;2023-03-21T01:25:16;24.60;;;12.38;;
67930;SDS011;63902;52.000;5.954;2023-03-21T01:26:17;24.98;;;12.70;;
67930;SDS011;63902;52.000;5.954;2023-03-21T01:27:18;19.52;;;12.27;;
67930;SDS011;63902;52.000;5.954;2023-03-21T01:28:18;22.10;;;13.10;;
67930;SDS011;63902;52.000;5.954;2023-03-21T01:29:21;20.35;;;12.25;;
67930;SDS011;63902;52.000;5.954;2023-03-21T01:30:21;20.52;;;12.55;;
67930;SDS011;63902;52.000;5.954;2023-03-21T01:31:22;29.00;;;13.43;;
67930;SDS011;63902;52.000;5.954;2023-03-21T01:32:22;22.17;;;12.63;;
67930;SDS011;63902;52.000;5.954;2023-03-21T01:33:23;20.25;;;13.13;;
67930;SDS011;63902;52.000;5.954;2023-03-21T01:34:23;23.20;;;13.02;;
67930;SDS011;63902;52.000;5.954;2023-03-21T01:35:24;18.15;;;11.02;;
67930;SDS011;63902;52.000;5.954;2023-03-21T01:36:24;22.05;;;12.98;;
67930;SDS011;63902;52.000;5.954;2023-03-21T01:37:26;19.35;;;12.70;;
67930;SDS011;63902;52.000;5.954;2023-03-21T01:38:26;20.27;;;12.52;;
67930;SDS011;63902;52.000;5.954;2023-03-21T01:39:27;18.20;;;11.98;;
67930;SDS011;63902;52.000;5.954;2023-03-21T01:40:28;23.13;;;12.90;;
67930;SDS011;63902;52.000;5.954;2023-03-21T01:41:30;29.95;;;13.40;;
67930;SDS011;63902;52.000;5.954;2023-03-21T01:42:31;21.15;;;12.32;;
67930;SDS011;63902;52.000;5.954;2023-03-21T01:43:33;28.70;;;13.43;;
67930;SDS011;63902;52.000;5.954;2023-03-21T01:46:06;25.65;;;12.55;;
67930;SDS011;63902;52.000;5.954;2023-03-21T01:47:24;20.98;;;11.98;;
67930;SDS011;63902;52.000;5.954;2023-03-21T01:48:25;20.50;;;11.52;;
67930;SDS011;63902;52.000;5.954;2023-03-21T01:49:28;22.63;;;12.60;;
67930;SDS011;63902;52.000;5.954;2023-03-21T01:50:31;21.65;;;12.50;;
67930;SDS011;63902;52.000;5.954;2023-03-21T01:51:33;21.13;;;11.93;;
67930;SDS011;63902;52.000;5.954;2023-03-21T01:52:37;19.98;;;12.20;;
67930;SDS011;63902;52.000;5.954;2023-03-21T01:53:38;19.10;;;11.60;;
67930;SDS011;63902;52.000;5.954;2023-03-21T01:54:40;20.65;;;12.18;;
67930;SDS011;63902;52.000;5.954;2023-03-21T01:55:42;20.77;;;11.43;;
67930;SDS011;63902;52.000;5.954;2023-03-21T01:56:43;22.02;;;11.65;;
67930;SDS011;63902;52.000;5.954;2023-03-21T01:57:46;19.08;;;12.07;;
67930;SDS011;63902;52.000;5.954;2023-03-21T01:58:51;14.88;;;10.57;;
67930;SDS011;63902;52.000;5.954;2023-03-21T01:59:55;23.33;;;11.05;;
67930;SDS011;63902;52.000;5.954;2023-03-21T02:00:56;19.75;;;11.00;;
67930;SDS011;63902;52.000;5.954;2023-03-21T02:01:57;19.98;;;11.18;;
67930;SDS011;63902;52.000;5.954;2023-03-21T02:03:02;20.98;;;12.80;;
67930;SDS011;63902;52.000;5.954;2023-03-21T02:04:05;24.73;;;12.20;;
67930;SDS011;63902;52.000;5.954;2023-03-21T02:05:05;22.70;;;12.10;;
67930;SDS011;63902;52.000;5.954;2023-03-21T02:06:07;18.65;;;11.90;;
67930;SDS011;63902;52.000;5.954;2023-03-21T02:07:12;22.50;;;11.23;;
67930;SDS011;63902;52.000;5.954;2023-03-21T02:08:14;16.67;;;11.05;;
67930;SDS011;63902;52.000;5.954;2023-03-21T02:09:16;18.77;;;11.50;;
67930;SDS011;63902;52.000;5.954;2023-03-21T02:10:20;23.00;;;10.95;;
67930;SDS011;63902;52.000;5.954;2023-03-21T02:11:21;18.77;;;11.13;;
67930;SDS011;63902;52.000;5.954;2023-03-21T02:12:22;16.88;;;10.75;;
67930;SDS011;63902;52.000;5.954;2023-03-21T02:13:23;21.25;;;11.90;;
67930;SDS011;63902;52.000;5.954;2023-03-21T02:14:24;18.30;;;10.75;;
67930;SDS011;63902;52.000;5.954;2023-03-21T02:15:26;24.48;;;10.63;;
67930;SDS011;63902;52.000;5.954;2023-03-21T02:16:28;18.65;;;12.15;;
67930;SDS011;63902;52.000;5.954;2023-03-21T02:17:37;24.70;;;10.50;;
67930;SDS011;63902;52.000;5.954;2023-03-21T02:18:43;22.60;;;11.75;;
67930;SDS011;63902;52.000;5.954;2023-03-21T02:23:31;18.20;;;10.25;;
67930;SDS011;63902;52.000;5.954;2023-03-21T02:26:33;19.85;;;10.98;;
67930;SDS011;63902;52.000;5.954;2023-03-21T02:28:03;20.65;;;10.75;;
67930;SDS011;63902;52.000;5.954;2023-03-21T02:29:10;21.52;;;11.32;;
67930;SDS011;63902;52.000;5.954;2023-03-21T02:30:34;20.20;;;10.77;;
67930;SDS011;63902;52.000;5.954;2023-03-21T02:31:45;15.13;;;10.45;;
67930;SDS011;63902;52.000;5.954;2023-03-21T02:33:10;18.08;;;10.93;;
67930;SDS011;63902;52.000;5.954;2023-03-21T02:34:34;23.02;;;11.35;;
67930;SDS011;63902;52.000;5.954;2023-03-21T02:35:50;22.48;;;11.93;;
67930;SDS011;63902;52.000;5.954;2023-03-21T02:37:05;18.77;;;11.35;;
67930;SDS011;63902;52.000;5.954;2023-03-21T02:38:13;26.95;;;11.95;;
67930;SDS011;63902;52.000;5.954;2023-03-21T02:39:22;21.65;;;11.85;;
67930;SDS011;63902;52.000;5.954;2023-03-21T02:40:26;25.55;;;11.50;;
67930;SDS011;63902;52.000;5.954;2023-03-21T02:41:35;25.17;;;12.48;;
67930;SDS011;63902;52.000;5.954;2023-03-21T02:42:48;19.65;;;11.18;;
67930;SDS011;63902;52.000;5.954;2023-03-21T02:43:59;20.30;;;11.73;;
67930;SDS011;63902;52.000;5.954;2023-03-21T02:45:07;22.25;;;12.32;;
67930;SDS011;63902;52.000;5.954;2023-03-21T02:46:14;25.40;;;13.63;;
67930;SDS011;63902;52.000;5.954;2023-03-21T02:47:18;23.17;;;12.73;;
67930;SDS011;63902;52.000;5.954;2023-03-21T02:48:24;21.98;;;12.57;;
67930;SDS011;63902;52.000;5.954;2023-03-21T02:49:30;25.42;;;12.65;;
67930;SDS011;63902;52.000;5.954;2023-03-21T02:50:37;24.65;;;12.45;;
67930;SDS011;63902;52.000;5.954;2023-03-21T02:51:42;24.55;;;12.70;;
67930;SDS011;63902;52.000;5.954;2023-03-21T02:52:47;21.65;;;12.55;;
67930;SDS011;63902;52.000;5.954;2023-03-21T02:53:50;22.38;;;12.07;;
67930;SDS011;63902;52.000;5.954;2023-03-21T02:54:54;22.83;;;13.07;;
67930;SDS011;63902;52.000;5.954;2023-03-21T02:55:57;19.38;;;12.98;;
67930;SDS011;63902;52.000;5.954;2023-03-21T02:56:59;20.60;;;11.93;;
67930;SDS011;63902;52.000;5.954;2023-03-21T02:58:02;27.58;;;12.63;;
67930;SDS011;63902;52.000;5.954;2023-03-21T02:59:05;20.05;;;12.50;;
67930;SDS011;63902;52.000;5.954;2023-03-21T03:00:08;20.73;;;12.00;;
67930;SDS011;63902;52.000;5.954;2023-03-21T03:01:09;22.50;;;11.88;;
67930;SDS011;63902;52.000;5.954;2023-03-21T03:02:10;22.17;;;12.35;;
67930;SDS011;63902;52.000;5.954;2023-03-21T03:03:11;23.45;;;12.00;;
67930;SDS011;63902;52.000;5.954;2023-03-21T03:04:18;22.25;;;12.80;;
67930;SDS011;63902;52.000;5.954;2023-03-21T03:05:20;24.33;;;12.68;;
67930;SDS011;63902;52.000;5.954;2023-03-21T03:06:24;21.27;;;12.73;;
67930;SDS011;63902;52.000;5.954;2023-03-21T03:07:30;18.02;;;12.07;;
67930;SDS011;63902;52.000;5.954;2023-03-21T03:08:42;19.95;;;12.18;;
67930;SDS011;63902;52.000;5.954;2023-03-21T03:10:07;20.75;;;11.75;;
67930;SDS011;63902;52.000;5.954;2023-03-21T03:11:22;19.80;;;11.85;;
67930;SDS011;63902;52.000;5.954;2023-03-21T03:12:26;22.88;;;11.82;;
67930;SDS011;63902;52.000;5.954;2023-03-21T03:13:37;18.27;;;12.05;;
67930;SDS011;63902;52.000;5.954;2023-03-21T03:14:50;15.93;;;11.77;;
67930;SDS011;63902;52.000;5.954;2023-03-21T03:16:00;19.73;;;12.82;;
67930;SDS011;63902;52.000;5.954;2023-03-21T03:17:09;20.15;;;11.75;;
67930;SDS011;63902;52.000;5.954;2023-03-21T03:18:19;25.40;;;11.77;;
67930;SDS011;63902;52.000;5.954;2023-03-21T03:19:27;18.73;;;12.30;;
67930;SDS011;63902;52.000;5.954;2023-03-21T03:20:32;19.52;;;12.48;;
67930;SDS011;63902;52.000;5.954;2023-03-21T03:21:43;22.90;;;11.38;;
67930;SDS011;63902;52.000;5.954;2023-03-21T03:22:51;20.35;;;12.13;;
67930;SDS011;63902;52.000;5.954;2023-03-21T03:24:00;24.40;;;13.32;;
67930;SDS011;63902;52.000;5.954;2023-03-21T03:25:06;25.50;;;11.63;;
67930;SDS011;63902;52.000;5.954;2023-03-21T03:26:11;21.70;;;12.93;;
67930;SDS011;63902;52.000;5.954;2023-03-21T03:27:16;18.58;;;12.00;;
67930;SDS011;63902;52.000;5.954;2023-03-21T03:28:24;21.25;;;11.70;;
67930;SDS011;63902;52.000;5.954;2023-03-21T03:29:29;20.98;;;12.90;;
67930;SDS011;63902;52.000;5.954;2023-03-21T03:30:33;20.30;;;11.65;;
67930;SDS011;63902;52.000;5.954;2023-03-21T03:31:36;22.05;;;11.48;;
67930;SDS011;63902;52.000;5.954;2023-03-21T03:32:41;23.77;;;11.75;;
67930;SDS011;63902;52.000;5.954;2023-03-21T03:33:45;22.25;;;13.27;;
67930;SDS011;63902;52.000;5.954;2023-03-21T03:34:49;26.73;;;11.95;;
67930;SDS011;63902;52.000;5.954;2023-03-21T03:35:51;26.00;;;12.38;;
67930;SDS011;63902;52.000;5.954;2023-03-21T03:36:56;15.68;;;10.15;;
67930;SDS011;63902;52.000;5.954;2023-03-21T03:37:59;20.20;;;11.55;;
67930;SDS011;63902;52.000;5.954;2023-03-21T03:39:06;23.83;;;11.88;;
67930;SDS011;63902;52.000;5.954;2023-03-21T03:40:09;15.70;;;11.07;;
67930;SDS011;63902;52.000;5.954;2023-03-21T03:41:13;22.85;;;12.63;;
67930;SDS011;63902;52.000;5.954;2023-03-21T03:42:19;25.52;;;11.50;;
67930;SDS011;63902;52.000;5.954;2023-03-21T03:43:25;23.33;;;12.00;;
67930;SDS011;63902;52.000;5.954;2023-03-21T03:44:33;22.33;;;12.18;;
67930;SDS011;63902;52.000;5.954;2023-03-21T03:45:36;22.15;;;12.02;;
67930;SDS011;63902;52.000;5.954;2023-03-21T03:46:43;28.27;;;12.52;;
67930;SDS011;63902;52.000;5.954;2023-03-21T03:47:51;21.27;;;12.35;;
67930;SDS011;63902;52.000;5.954;2023-03-21T03:48:57;25.17;;;11.60;;
67930;SDS011;63902;52.000;5.954;2023-03-21T03:50:02;21.77;;;12.35;;
67930;SDS011;63902;52.000;5.954;2023-03-21T03:51:08;22.80;;;11.68;;
67930;SDS011;63902;52.000;5.954;2023-03-21T03:52:15;19.27;;;11.63;;
67930;SDS011;63902;52.000;5.954;2023-03-21T03:53:19;22.23;;;11.55;;
67930;SDS011;63902;52.000;5.954;2023-03-21T03:54:25;23.55;;;13.02;;
67930;SDS011;63902;52.000;5.954;2023-03-21T03:55:29;23.35;;;12.20;;
67930;SDS011;63902;52.000;5.954;2023-03-21T03:56:30;22.48;;;11.48;;
67930;SDS011;63902;52.000;5.954;2023-03-21T03:57:32;25.33;;;11.98;;
67930;SDS011;63902;52.000;5.954;2023-03-21T03:58:33;17.85;;;10.68;;
67930;SDS011;63902;52.000;5.954;2023-03-21T03:59:35;20.73;;;11.85;;
67930;SDS011;63902;52.000;5.954;2023-03-21T04:00:36;24.58;;;11.40;;
67930;SDS011;63902;52.000;5.954;2023-03-21T04:01:37;24.65;;;10.93;;
67930;SDS011;63902;52.000;5.954;2023-03-21T04:02:38;24.15;;;11.23;;
67930;SDS011;63902;52.000;5.954;2023-03-21T04:03:39;21.10;;;11.38;;
67930;SDS011;63902;52.000;5.954;2023-03-21T04:04:42;21.23;;;11.20;;
67930;SDS011;63902;52.000;5.954;2023-03-21T04:05:42;22.65;;;10.95;;
67930;SDS011;63902;52.000;5.954;2023-03-21T04:06:43;27.65;;;11.18;;
67930;SDS011;63902;52.000;5.954;2023-03-21T04:07:44;22.80;;;11.05;;
67930;SDS011;63902;52.000;5.954;2023-03-21T04:08:45;21.85;;;11.27;;
67930;SDS011;63902;52.000;5.954;2023-03-21T04:09:47;24.33;;;11.35;;
67930;SDS011;63902;52.000;5.954;2023-03-21T04:10:47;18.45;;;9.90;;
67930;SDS011;63902;52.000;5.954;2023-03-21T04:11:48;23.52;;;10.50;;
67930;SDS011;63902;52.000;5.954;2023-03-21T04:12:48;21.63;;;10.00;;
67930;SDS011;63902;52.000;5.954;2023-03-21T04:13:49;16.67;;;10.50;;
67930;SDS011;63902;52.000;5.954;2023-03-21T04:14:49;18.85;;;9.82;;
67930;SDS011;63902;52.000;5.954;2023-03-21T04:15:50;22.70;;;9.88;;
67930;SDS011;63902;52.000;5.954;2023-03-21T04:16:51;20.63;;;10.00;;
67930;SDS011;63902;52.000;5.954;2023-03-21T04:17:51;18.55;;;9.55;;
67930;SDS011;63902;52.000;5.954;2023-03-21T04:18:52;24.33;;;9.45;;
67930;SDS011;63902;52.000;5.954;2023-03-21T04:19:52;21.13;;;9.65;;
67930;SDS011;63902;52.000;5.954;2023-03-21T04:20:53;20.42;;;8.93;;
67930;SDS011;63902;52.000;5.954;2023-03-21T04:21:53;18.55;;;9.23;;
67930;SDS011;63902;52.000;5.954;2023-03-21T04:22:54;23.05;;;9.65;;
67930;SDS011;63902;52.000;5.954;2023-03-21T04:23:54;14.77;;;9.07;;
67930;SDS011;63902;52.000;5.954;2023-03-21T04:24:56;19.60;;;9.35;;
67930;SDS011;63902;52.000;5.954;2023-03-21T04:25:57;24.00;;;10.75;;
67930;SDS011;63902;52.000;5.954;2023-03-21T04:26:57;20.23;;;9.48;;
67930;SDS011;63902;52.000;5.954;2023-03-21T04:27:58;19.67;;;9.20;;
67930;SDS011;63902;52.000;5.954;2023-03-21T04:28:58;18.20;;;9.15;;
67930;SDS011;63902;52.000;5.954;2023-03-21T04:29:59;18.77;;;10.55;;
67930;SDS011;63902;52.000;5.954;2023-03-21T04:31:00;14.35;;;8.00;;
67930;SDS011;63902;52.000;5.954;2023-03-21T04:32:00;21.25;;;8.82;;
67930;SDS011;63902;52.000;5.954;2023-03-21T04:33:00;18.88;;;9.25;;
67930;SDS011;63902;52.000;5.954;2023-03-21T04:34:02;14.55;;;8.68;;
67930;SDS011;63902;52.000;5.954;2023-03-21T04:35:04;18.73;;;8.50;;
67930;SDS011;63902;52.000;5.954;2023-03-21T04:36:06;14.18;;;7.63;;
67930;SDS011;63902;52.000;5.954;2023-03-21T04:37:07;19.67;;;9.07;;
67930;SDS011;63902;52.000;5.954;2023-03-21T04:38:08;12.15;;;7.82;;
67930;SDS011;63902;52.000;5.954;2023-03-21T04:39:08;20.33;;;7.93;;
67930;SDS011;63902;52.000;5.954;2023-03-21T04:40:11;14.10;;;7.63;;
67930;SDS011;63902;52.000;5.954;2023-03-21T04:41:11;17.10;;;8.57;;
67930;SDS011;63902;52.000;5.954;2023-03-21T04:42:12;16.17;;;7.95;;
67930;SDS011;63902;52.000;5.954;2023-03-21T04:43:13;17.15;;;9.43;;
67930;SDS011;63902;52.000;5.954;2023-03-21T04:44:14;18.17;;;9.55;;
67930;SDS011;63902;52.000;5.954;2023-03-21T04:45:15;20.40;;;8.00;;
67930;SDS011;63902;52.000;5.954;2023-03-21T04:46:16;18.17;;;8.45;;
67930;SDS011;63902;52.000;5.954;2023-03-21T04:47:17;16.85;;;7.90;;
67930;SDS011;63902;52.000;5.954;2023-03-21T04:48:17;14.30;;;8.23;;
67930;SDS011;63902;52.000;5.954;2023-03-21T04:49:18;15.07;;;8.23;;
67930;SDS011;63902;52.000;5.954;2023-03-21T04:50:18;17.63;;;8.77;;
67930;SDS011;63902;52.000;5.954;2023-03-21T04:51:19;16.73;;;8.07;;
67930;SDS011;63902;52.000;5.954;2023-03-21T04:52:19;17.42;;;8.27;;
67930;SDS011;63902;52.000;5.954;2023-03-21T04:53:20;22.23;;;8.30;;
67930;SDS011;63902;52.000;5.954;2023-03-21T04:54:20;20.10;;;8.20;;
67930;SDS011;63902;52.000;5.954;2023-03-21T04:55:22;16.05;;;8.38;;
67930;SDS011;63902;52.000;5.954;2023-03-21T04:56:23;20.05;;;8.25;;
67930;SDS011;63902;52.000;5.954;2023-03-21T04:57:24;19.95;;;8.27;;
67930;SDS011;63902;52.000;5.954;2023-03-21T04:58:24;15.23;;;8.55;;
67930;SDS011;63902;52.000;5.954;2023-03-21T04:59:25;14.68;;;8.32;;
67930;SDS011;63902;52.000;5.954;2023-03-21T05:00:25;15.57;;;7.90;;
67930;SDS011;63902;52.000;5.954;2023-03-21T05:01:26;20.55;;;7.70;;
67930;SDS011;63902;52.000;5.954;2023-03-21T05:02:27;15.30;;;7.95;;
67930;SDS011;63902;52.000;5.954;2023-03-21T05:03:27;17.58;;;7.90;;
67930;SDS011;63902;52.000;5.954;2023-03-21T05:04:28;16.02;;;8.07;;
67930;SDS011;63902;52.000;5.954;2023-03-21T05:05:28;20.33;;;8.05;;
67930;SDS011;63902;52.000;5.954;2023-03-21T05:06:29;16.40;;;8.25;;
67930;SDS011;63902;52.000;5.954;2023-03-21T05:07:30;21.40;;;9.13;;
67930;SDS011;63902;52.000;5.954;2023-03-21T05:08:30;17.40;;;8.52;;
67930;SDS011;63902;52.000;5.954;2023-03-21T05:09:31;22.52;;;9.07;;
67930;SDS011;63902;52.000;5.954;2023-03-21T05:10:33;27.17;;;9.20;;
67930;SDS011;63902;52.000;5.954;2023-03-21T05:11:34;18.50;;;8.63;;
67930;SDS011;63902;52.000;5.954;2023-03-21T05:12:36;25.83;;;8.65;;
67930;SDS011;63902;52.000;5.954;2023-03-21T05:13:37;20.05;;;8.43;;
67930;SDS011;63902;52.000;5.954;2023-03-21T05:14:38;22.20;;;8.30;;
67930;SDS011;63902;52.000;5.954;2023-03-21T05:15:38;19.67;;;8.60;;
67930;SDS011;63902;52.000;5.954;2023-03-21T05:16:39;21.08;;;9.00;;
67930;SDS011;63902;52.000;5.954;2023-03-21T05:17:41;17.88;;;8.45;;
67930;SDS011;63902;52.000;5.954;2023-03-21T05:18:41;19.58;;;9.25;;
67930;SDS011;63902;52.000;5.954;2023-03-21T05:19:42;16.35;;;8.00;;
67930;SDS011;63902;52.000;5.954;2023-03-21T05:20:42;18.42;;;7.88;;
67930;SDS011;63902;52.000;5.954;2023-03-21T05:21:43;17.75;;;8.25;;
67930;SDS011;63902;52.000;5.954;2023-03-21T05:22:43;14.85;;;8.00;;
67930;SDS011;63902;52.000;5.954;2023-03-21T05:23:44;14.68;;;7.20;;
67930;SDS011;63902;52.000;5.954;2023-03-21T05:24:44;14.60;;;7.68;;
67930;SDS011;63902;52.000;5.954;2023-03-21T05:25:46;17.80;;;7.85;;
67930;SDS011;63902;52.000;5.954;2023-03-21T05:26:47;13.45;;;8.00;;
67930;SDS011;63902;52.000;5.954;2023-03-21T05:27:48;19.40;;;8.15;;
67930;SDS011;63902;52.000;5.954;2023-03-21T05:28:49;14.75;;;9.32;;
67930;SDS011;63902;52.000;5.954;2023-03-21T05:29:49;22.30;;;8.27;;
67930;SDS011;63902;52.000;5.954;2023-03-21T05:30:50;18.10;;;7.63;;
67930;SDS011;63902;52.000;5.954;2023-03-21T05:31:50;16.50;;;8.50;;
67930;SDS011;63902;52.000;5.954;2023-03-21T05:32:51;19.08;;;7.70;;
67930;SDS011;63902;52.000;5.954;2023-03-21T05:33:51;16.55;;;8.27;;
67930;SDS011;63902;52.000;5.954;2023-03-21T05:34:52;19.00;;;8.23;;
67930;SDS011;63902;52.000;5.954;2023-03-21T05:35:52;22.90;;;8.10;;
67930;SDS011;63902;52.000;5.954;2023-03-21T05:36:53;20.42;;;8.43;;
67930;SDS011;63902;52.000;5.954;2023-03-21T05:37:54;16.63;;;7.63;;
67930;SDS011;63902;52.000;5.954;2023-03-21T05:38:54;17.48;;;8.25;;
67930;SDS011;63902;52.000;5.954;2023-03-21T05:39:55;15.63;;;7.72;;
67930;SDS011;63902;52.000;5.954;2023-03-21T05:40:57;16.38;;;8.18;;
67930;SDS011;63902;52.000;5.954;2023-03-21T05:41:57;16.98;;;7.95;;
67930;SDS011;63902;52.000;5.954;2023-03-21T05:42:58;21.38;;;8.48;;
67930;SDS011;63902;52.000;5.954;2023-03-21T05:43:58;17.88;;;7.97;;
67930;SDS011;63902;52.000;5.954;2023-03-21T05:44:59;18.83;;;8.52;;
67930;SDS011;63902;52.000;5.954;2023-03-21T05:45:59;15.13;;;8.05;;
67930;SDS011;63902;52.000;5.954;2023-03-21T05:47:00;14.40;;;7.43;;
67930;SDS011;63902;52.000;5.954;2023-03-21T05:48:00;20.40;;;7.80;;
67930;SDS011;63902;52.000;5.954;2023-03-21T05:49:01;17.98;;;7.75;;
67930;SDS011;63902;52.000;5.954;2023-03-21T05:50:02;19.20;;;8.75;;
67930;SDS011;63902;52.000;5.954;2023-03-21T05:51:03;15.80;;;7.38;;
67930;SDS011;63902;52.000;5.954;2023-03-21T05:52:04;14.95;;;6.85;;
67930;SDS011;63902;52.000;5.954;2023-03-21T05:53:04;20.08;;;8.10;;
67930;SDS011;63902;52.000;5.954;2023-03-21T05:54:05;15.73;;;7.07;;
67930;SDS011;63902;52.000;5.954;2023-03-21T05:55:05;19.88;;;8.20;;
67930;SDS011;63902;52.000;5.954;2023-03-21T05:56:08;19.83;;;7.93;;
67930;SDS011;63902;52.000;5.954;2023-03-21T05:57:09;17.08;;;7.53;;
67930;SDS011;63902;52.000;5.954;2023-03-21T05:58:09;15.50;;;7.57;;
67930;SDS011;63902;52.000;5.954;2023-03-21T05:59:10;16.95;;;7.75;;
67930;SDS011;63902;52.000;5.954;2023-03-21T06:00:11;19.83;;;9.25;;
67930;SDS011;63902;52.000;5.954;2023-03-21T06:01:12;16.48;;;7.82;;
67930;SDS011;63902;52.000;5.954;2023-03-21T06:02:12;18.02;;;7.80;;
67930;SDS011;63902;52.000;5.954;2023-03-21T06:03:13;22.52;;;8.80;;
67930;SDS011;63902;52.000;5.954;2023-03-21T06:04:14;18.52;;;8.73;;
67930;SDS011;63902;52.000;5.954;2023-03-21T06:05:14;18.88;;;7.95;;
67930;SDS011;63902;52.000;5.954;2023-03-21T06:06:15;17.95;;;7.88;;
67930;SDS011;63902;52.000;5.954;2023-03-21T06:07:16;17.45;;;7.22;;
67930;SDS011;63902;52.000;5.954;2023-03-21T06:08:16;16.73;;;8.50;;
67930;SDS011;63902;52.000;5.954;2023-03-21T06:09:17;21.38;;;7.93;;
67930;SDS011;63902;52.000;5.954;2023-03-21T06:10:17;15.63;;;7.15;;
67930;SDS011;63902;52.000;5.954;2023-03-21T06:11:21;14.80;;;7.50;;
67930;SDS011;63902;52.000;5.954;2023-03-21T06:12:23;22.77;;;8.20;;
67930;SDS011;63902;52.000;5.954;2023-03-21T06:13:24;17.70;;;8.05;;
67930;SDS011;63902;52.000;5.954;2023-03-21T06:14:24;20.00;;;8.60;;